Time;durP1;ratioP1;P1;durP2;ratioP2;P2;SDS_P1;SDS_P2;PMS_P1;PMS_P2;Temp;Humidity;BMP_temperature;BMP_pressure;BME280_temperature;BME280_humidity;BME280_pressure;Samples;Min_cycle;Max_cycle;Signal;HPM_P1;HPM_P2
2021/04/24 00:00:16;;;;;;;39.00;14.68;;;;;;;4.16;55.74;99217.28;5012781;28;20497;-80
2021/04/24 00:02:42;;;;;;;36.03;13.77;;;;;;;4.19;55.52;99221.41;5012764;28;20022;-80
2021/04/24 00:05:10;;;;;;;37.83;13.90;;;;;;;4.21;55.46;99222.00;5012754;28;20029;-80
2021/04/24 00:07:36;;;;;;;38.05;13.82;;;;;;;4.20;56.07;99216.81;5012943;28;20029;-80
2021/04/24 00:10:03;;;;;;;34.78;13.25;;;;;;;4.24;56.39;99223.44;5013081;28;20025;-80
2021/04/24 00:12:29;;;;;;;34.55;12.35;;;;;;;4.25;55.42;99216.94;5012677;28;20026;-80
2021/04/24 00:14:54;;;;;;;35.05;13.50;;;;;;;4.27;55.41;99215.63;5026444;28;20080;-80
2021/04/24 00:17:19;;;;;;;44.25;15.13;;;;;;;4.27;55.67;99217.53;5052480;28;20079;-80
2021/04/24 00:19:45;;;;;;;38.70;14.93;;;;;;;4.27;55.56;99207.50;5052452;28;20044;-80
2021/04/24 00:22:12;;;;;;;36.60;13.55;;;;;;;4.27;55.93;99221.06;5052306;28;20095;-80
2021/04/24 00:24:37;;;;;;;36.47;14.90;;;;;;;4.26;56.18;99218.59;5058963;28;20539;-79
2021/04/24 00:27:03;;;;;;;37.08;14.10;;;;;;;4.26;56.25;99213.97;5060642;28;20033;-80
2021/04/24 00:29:28;;;;;;;44.05;16.58;;;;;;;4.27;55.63;99210.19;5058649;28;20017;-80
2021/04/24 00:31:54;;;;;;;46.35;17.00;;;;;;;4.30;56.53;99211.59;5064995;28;20051;-79
2021/04/24 00:34:19;;;;;;;45.22;16.88;;;;;;;4.30;56.09;99217.88;5057226;28;20060;-80
2021/04/24 00:36:44;;;;;;;41.53;15.38;;;;;;;4.28;56.23;99221.91;5056234;28;20461;-80
2021/04/24 00:39:10;;;;;;;39.13;14.20;;;;;;;4.27;56.53;99217.53;5055968;28;20095;-79
2021/04/24 00:41:35;;;;;;;40.60;15.55;;;;;;;4.27;55.63;99212.09;5055994;28;20029;-80
2021/04/24 00:44:00;;;;;;;46.67;15.10;;;;;;;4.27;56.10;99214.81;5055737;28;20367;-79
2021/04/24 00:46:26;;;;;;;38.28;14.18;;;;;;;4.23;56.22;99208.22;5054523;28;20529;-80
2021/04/24 00:48:51;;;;;;;41.90;14.35;;;;;;;4.22;56.53;99212.78;5055906;28;20025;-80
2021/04/24 00:51:17;;;;;;;31.95;13.18;;;;;;;4.20;56.44;99212.19;5055770;28;20025;-79
2021/04/24 00:53:42;;;;;;;35.38;13.23;;;;;;;4.21;56.71;99210.31;5054480;28;20397;-80
2021/04/24 00:56:08;;;;;;;37.42;13.85;;;;;;;4.20;56.72;99209.50;5055744;28;20112;-80
2021/04/24 00:58:34;;;;;;;37.83;14.02;;;;;;;4.19;56.29;99213.25;5055776;28;20401;-79
2021/04/24 01:01:01;;;;;;;34.25;13.10;;;;;;;4.20;56.48;99214.09;5055521;28;20025;-78
2021/04/24 01:03:26;;;;;;;34.53;12.55;;;;;;;4.21;56.20;99211.16;5055538;28;20063;-79
2021/04/24 01:05:52;;;;;;;29.30;11.98;;;;;;;4.20;56.58;99214.91;5055574;28;20102;-78
2021/04/24 01:08:17;;;;;;;28.25;11.60;;;;;;;4.23;56.81;99213.63;5055381;28;20104;-79
2021/04/24 01:10:44;;;;;;;34.22;13.02;;;;;;;4.23;56.33;99209.03;5054849;28;20492;-77
2021/04/24 01:13:10;;;;;;;35.65;12.65;;;;;;;4.22;56.35;99207.38;5055478;28;20032;-81
2021/04/24 01:15:36;;;;;;;34.97;13.75;;;;;;;4.25;56.08;99211.50;5055103;28;20409;-77
2021/04/24 01:18:05;;;;;;;31.83;13.27;;;;;;;4.23;56.84;99200.88;5037719;28;20022;-77
2021/04/24 01:20:32;;;;;;;37.00;14.00;;;;;;;4.22;56.74;99201.94;5070354;28;20660;-78
2021/04/24 01:22:57;;;;;;;40.35;14.68;;;;;;;4.19;56.79;99202.41;5020714;28;20049;-78
2021/04/24 01:25:25;;;;;;;35.88;14.85;;;;;;;4.19;55.90;99202.41;5025805;28;20119;-78
2021/04/24 01:27:53;;;;;;;37.47;13.43;;;;;;;4.19;56.51;99196.16;5044839;28;20052;-78
2021/04/24 01:30:23;;;;;;;36.38;12.68;;;;;;;4.15;56.67;99193.91;5045519;28;20043;-79
2021/04/24 01:32:50;;;;;;;34.28;13.82;;;;;;;4.15;56.11;99191.19;5044868;28;20016;-78
2021/04/24 01:35:20;;;;;;;35.72;13.32;;;;;;;4.12;56.13;99188.97;5044130;28;20112;-80
2021/04/24 01:37:46;;;;;;;34.33;12.90;;;;;;;4.10;56.15;99182.94;5027210;28;20108;-80
2021/04/24 01:40:13;;;;;;;39.80;13.55;;;;;;;4.11;56.34;99184.59;5020896;28;20033;-79
2021/04/24 01:42:39;;;;;;;59.65;26.27;;;;;;;4.08;56.91;99185.06;5018693;28;20017;-79
2021/04/24 01:45:07;;;;;;;67.05;27.98;;;;;;;4.07;57.23;99185.31;5023854;28;20363;-80
2021/04/24 01:47:34;;;;;;;50.85;16.95;;;;;;;4.07;57.31;99177.97;5026993;28;20036;-82
2021/04/24 01:49:59;;;;;;;41.33;14.85;;;;;;;4.06;56.89;99184.47;5048010;28;20021;-78
2021/04/24 01:52:35;;;;;;;40.15;15.25;;;;;;;4.04;56.87;99173.00;5038468;28;20040;-81
2021/04/24 01:55:02;;;;;;;39.30;14.20;;;;;;;4.02;57.60;99188.72;5035991;28;20033;-79
2021/04/24 01:57:28;;;;;;;28.17;10.45;;;;;;;4.04;57.68;99196.63;5028037;28;20032;-79
2021/04/24 01:59:53;;;;;;;28.52;11.77;;;;;;;4.06;57.11;99191.78;5056011;28;20033;-78
2021/04/24 02:02:18;;;;;;;31.45;11.38;;;;;;;4.06;56.94;99176.31;5019803;28;20421;-78
2021/04/24 02:04:44;;;;;;;28.35;11.40;;;;;;;4.08;57.78;99184.22;5019828;28;20025;-79
2021/04/24 02:07:11;;;;;;;26.10;9.68;;;;;;;4.09;57.12;99184.00;5026094;28;20033;-79
2021/04/24 02:09:36;;;;;;;24.30;10.18;;;;;;;4.13;57.71;99182.47;5026785;28;20034;-79
2021/04/24 02:12:02;;;;;;;24.75;9.10;;;;;;;4.22;57.04;99190.25;5026873;28;20036;-78
2021/04/24 02:14:27;;;;;;;21.48;8.80;;;;;;;4.25;56.87;99187.88;5058140;28;20494;-79
2021/04/24 02:16:52;;;;;;;25.15;9.63;;;;;;;4.27;57.41;99182.25;5026752;28;20047;-79
2021/04/24 02:19:18;;;;;;;19.73;8.35;;;;;;;4.28;57.75;99181.19;5027222;28;20067;-79
2021/04/24 02:21:43;;;;;;;21.52;9.07;;;;;;;4.28;57.62;99175.75;5020919;28;20592;-79
2021/04/24 02:24:09;;;;;;;21.60;9.40;;;;;;;4.30;57.19;99184.44;5019455;28;20021;-78
2021/04/24 02:26:35;;;;;;;22.40;8.82;;;;;;;4.33;57.44;99186.69;5022165;28;20458;-79
2021/04/24 02:29:01;;;;;;;22.92;8.70;;;;;;;4.32;57.79;99185.88;5026611;28;20421;-79
2021/04/24 02:31:27;;;;;;;15.85;6.63;;;;;;;4.32;57.32;99179.59;5026000;28;20646;-78
2021/04/24 02:33:53;;;;;;;25.63;8.50;;;;;;;4.31;57.02;99181.50;5026409;28;20053;-79
2021/04/24 02:36:18;;;;;;;22.73;8.15;;;;;;;4.32;57.65;99182.31;5026499;28;20059;-79
2021/04/24 02:38:50;;;;;;;19.95;8.35;;;;;;;4.32;58.04;99179.59;5026153;28;20365;-79
2021/04/24 02:41:15;;;;;;;23.92;10.40;;;;;;;4.34;58.13;99188.34;5026709;28;20022;-79
2021/04/24 02:43:41;;;;;;;22.52;9.18;;;;;;;4.30;57.96;99179.88;5021724;28;20023;-79
2021/04/24 02:46:08;;;;;;;19.92;8.40;;;;;;;4.30;58.30;99184.44;5018995;28;20646;-78
2021/04/24 02:48:33;;;;;;;22.13;7.18;;;;;;;4.28;57.22;99192.03;5021501;28;20037;-78
2021/04/24 02:50:59;;;;;;;19.83;7.68;;;;;;;4.25;57.76;99197.94;5025462;28;20029;-79
2021/04/24 02:53:24;;;;;;;20.38;8.07;;;;;;;4.22;57.56;99201.94;5025574;28;20040;-78
2021/04/24 02:55:50;;;;;;;23.10;10.13;;;;;;;4.23;57.78;99206.31;5029985;28;20029;-78
2021/04/24 02:58:16;;;;;;;23.88;8.93;;;;;;;4.22;58.02;99193.78;5024911;28;20025;-78
2021/04/24 03:00:41;;;;;;;19.60;7.28;;;;;;;4.23;57.90;99198.16;5025602;28;20108;-79
2021/04/24 03:03:10;;;;;;;20.17;7.68;;;;;;;4.27;57.46;99198.53;5023760;28;20159;-78
2021/04/24 03:05:36;;;;;;;20.42;6.55;;;;;;;4.28;58.24;99197.47;5017597;28;20445;-78
2021/04/24 03:08:03;;;;;;;16.20;7.43;;;;;;;4.26;58.54;99203.13;5017360;28;20030;-78
2021/04/24 03:10:29;;;;;;;17.90;6.97;;;;;;;4.25;58.18;99195.22;5024925;28;20028;-78
2021/04/24 03:12:55;;;;;;;15.38;6.88;;;;;;;4.26;58.59;99203.13;5024454;28;20573;-78
2021/04/24 03:15:21;;;;;;;17.13;7.57;;;;;;;4.27;58.20;99195.81;5025176;28;20124;-78
2021/04/24 03:17:47;;;;;;;15.77;6.45;;;;;;;4.30;58.23;99203.47;5024788;28;20098;-77
2021/04/24 03:20:15;;;;;;;19.95;7.18;;;;;;;4.31;58.05;99194.25;5027528;28;20044;-78
2021/04/24 03:22:41;;;;;;;17.95;7.00;;;;;;;4.28;58.69;99206.44;5026254;28;20032;-78
2021/04/24 03:25:08;;;;;;;22.02;8.13;;;;;;;4.29;58.23;99204.53;5020617;28;20084;-77
2021/04/24 03:27:33;;;;;;;15.93;7.47;;;;;;;4.24;59.36;99205.25;5018017;28;20109;-78
2021/04/24 03:29:59;;;;;;;21.65;8.35;;;;;;;4.22;59.18;99203.84;5018068;28;20079;-78
2021/04/24 03:32:25;;;;;;;23.67;9.05;;;;;;;4.20;58.98;99214.09;5057202;28;20494;-78
2021/04/24 03:34:50;;;;;;;23.65;9.35;;;;;;;4.17;58.68;99210.81;5025495;28;20033;-79
2021/04/24 03:37:15;;;;;;;34.60;10.25;;;;;;;4.16;58.71;99213.72;5025087;28;20030;-78
2021/04/24 03:39:41;;;;;;;35.83;11.98;;;;;;;4.17;59.31;99212.66;5023966;28;20040;-78
2021/04/24 03:42:06;;;;;;;26.48;10.02;;;;;;;4.17;59.70;99226.25;5024484;28;20763;-78
2021/04/24 03:44:32;;;;;;;33.55;11.30;;;;;;;4.14;59.78;99219.41;5023878;28;20033;-78
2021/04/24 03:46:57;;;;;;;24.73;10.07;;;;;;;4.16;59.76;99213.72;5016971;28;20209;-78
2021/04/24 03:49:22;;;;;;;18.80;8.40;;;;;;;4.16;59.27;99216.44;5018347;28;20082;-77
2021/04/24 03:51:49;;;;;;;19.00;8.00;;;;;;;4.19;59.24;99223.31;5023811;28;20018;-78
2021/04/24 03:54:14;;;;;;;21.65;9.02;;;;;;;4.22;59.93;99215.50;5025723;28;20117;-78
2021/04/24 03:56:40;;;;;;;22.27;8.70;;;;;;;4.23;59.24;99213.63;5024474;28;20515;-78
2021/04/24 03:59:05;;;;;;;18.80;8.02;;;;;;;4.22;59.45;99220.13;5027299;28;20049;-78
2021/04/24 04:01:31;;;;;;;20.80;8.85;;;;;;;4.19;60.17;99215.97;5024143;28;20064;-78
2021/04/24 04:03:56;;;;;;;26.17;8.98;;;;;;;4.14;59.47;99213.97;5026141;28;20446;-78
2021/04/24 04:06:21;;;;;;;22.70;9.00;;;;;;;4.14;59.92;99222.13;5052977;28;20083;-77
2021/04/24 04:08:47;;;;;;;19.52;9.50;;;;;;;4.16;60.04;99213.72;5015012;28;20037;-76
2021/04/24 04:11:12;;;;;;;23.17;9.77;;;;;;;4.14;60.30;99213.13;5015585;28;20036;-77
2021/04/24 04:13:38;;;;;;;20.85;10.13;;;;;;;4.15;59.82;99221.06;5023592;28;20033;-77
2021/04/24 04:16:04;;;;;;;21.83;9.98;;;;;;;4.22;59.81;99209.28;5023949;28;20051;-77
2021/04/24 04:18:34;;;;;;;20.42;9.27;;;;;;;4.25;59.68;99212.31;5026629;28;20021;-77
2021/04/24 04:21:00;;;;;;;20.15;10.00;;;;;;;4.27;60.15;99214.81;5025041;28;20021;-78
2021/04/24 04:23:25;;;;;;;20.25;9.32;;;;;;;4.30;60.44;99219.75;5024412;28;20396;-78
2021/04/24 04:25:51;;;;;;;23.50;9.13;;;;;;;4.35;60.38;99219.88;5026048;28;20102;-78
2021/04/24 04:28:17;;;;;;;25.55;11.35;;;;;;;4.38;60.36;99211.25;5019682;28;20540;-77
2021/04/24 04:30:42;;;;;;;22.42;9.88;;;;;;;4.39;60.11;99214.81;5018256;28;20017;-77
2021/04/24 04:33:09;;;;;;;24.17;9.05;;;;;;;4.36;60.58;99213.38;5020434;28;20143;-78
2021/04/24 04:35:36;;;;;;;21.48;9.38;;;;;;;4.34;60.37;99211.97;5028109;28;20245;-78
2021/04/24 04:38:03;;;;;;;22.88;10.20;;;;;;;4.30;60.73;99208.88;5023604;28;20068;-78
2021/04/24 04:40:29;;;;;;;24.35;10.85;;;;;;;4.31;60.90;99207.81;5025845;28;20091;-78
2021/04/24 04:42:55;;;;;;;27.73;11.02;;;;;;;4.26;60.71;99203.13;5024227;28;20033;-78
2021/04/24 04:45:21;;;;;;;39.60;16.75;;;;;;;4.25;61.23;99204.19;5024799;28;20078;-78
2021/04/24 04:47:47;;;;;;;32.90;14.00;;;;;;;4.26;61.09;99205.03;5023022;28;20021;-78
2021/04/24 04:50:18;;;;;;;56.60;22.33;;;;;;;4.30;60.58;99209.72;5017785;28;20084;-78
2021/04/24 04:52:44;;;;;;;45.92;16.83;;;;;;;4.33;61.27;99216.56;5017936;28;20017;-77
2021/04/24 04:55:10;;;;;;;49.65;17.67;;;;;;;4.37;61.21;99215.03;5022207;28;20040;-78
2021/04/24 04:57:36;;;;;;;54.20;18.92;;;;;;;4.40;61.36;99221.91;5024107;28;20516;-77
2021/04/24 05:00:05;;;;;;;72.88;25.88;;;;;;;4.45;60.82;99228.25;5024108;28;20026;-78
2021/04/24 05:02:30;;;;;;;46.42;19.27;;;;;;;4.53;61.25;99220.81;5023666;28;20145;-78
2021/04/24 05:04:56;;;;;;;29.13;13.38;;;;;;;4.59;60.89;99220.69;5023741;28;20031;-77
2021/04/24 05:07:58;;;;;;;25.00;10.73;;;;;;;4.69;60.89;99213.81;5024226;28;20037;-77
2021/04/24 05:10:25;;;;;;;28.83;11.23;;;;;;;4.78;61.03;99215.13;5023038;28;21046;-77
2021/04/24 05:12:52;;;;;;;28.13;13.30;;;;;;;4.84;61.63;99224.19;5034039;28;20765;-76
2021/04/24 05:15:18;;;;;;;27.95;11.05;;;;;;;4.90;61.00;99226.78;5039266;28;20048;-77
2021/04/24 05:17:44;;;;;;;27.42;10.98;;;;;;;4.96;60.78;99227.72;5047080;28;20029;-78
2021/04/24 05:20:10;;;;;;;29.08;12.32;;;;;;;5.01;61.04;99227.00;5046338;28;20033;-78
2021/04/24 05:22:36;;;;;;;32.90;14.70;;;;;;;5.13;61.19;99238.66;5045340;28;20043;-77
2021/04/24 05:25:02;;;;;;;29.17;11.00;;;;;;;5.22;61.25;99239.94;5046774;28;20025;-78
2021/04/24 05:27:28;;;;;;;29.45;11.13;;;;;;;5.35;60.67;99233.38;5046073;28;20119;-77
2021/04/24 05:29:53;;;;;;;25.88;11.05;;;;;;;5.53;61.24;99244.31;5045553;28;20440;-77
2021/04/24 05:32:19;;;;;;;29.17;11.35;;;;;;;5.70;60.41;99245.19;5019448;28;20053;-77
2021/04/24 05:34:46;;;;;;;25.08;11.25;;;;;;;5.77;60.25;99250.47;5019294;28;20025;-77
2021/04/24 05:37:12;;;;;;;24.65;10.98;;;;;;;5.82;59.71;99253.28;5029137;28;20025;-77
2021/04/24 05:39:37;;;;;;;22.55;10.55;;;;;;;5.89;60.00;99258.56;5029480;28;20520;-76
2021/04/24 05:42:03;;;;;;;25.17;11.20;;;;;;;5.99;59.87;99249.75;5026704;28;20037;-78
2021/04/24 05:44:29;;;;;;;27.50;10.77;;;;;;;6.06;59.48;99250.44;5045894;28;20091;-77
2021/04/24 05:46:54;;;;;;;22.98;10.70;;;;;;;6.09;59.59;99249.94;5045889;28;20025;-77
2021/04/24 05:49:19;;;;;;;22.23;8.85;;;;;;;6.17;59.22;99249.53;5046303;28;20029;-76
2021/04/24 05:51:45;;;;;;;23.25;9.57;;;;;;;6.17;58.32;99240.53;5046016;28;20027;-77
2021/04/24 05:54:11;;;;;;;23.52;9.40;;;;;;;6.20;58.63;99240.88;5054718;28;20029;-77
2021/04/24 05:56:36;;;;;;;21.52;10.75;;;;;;;6.25;58.62;99235.50;5055246;28;20047;-77
2021/04/24 05:59:02;;;;;;;15.68;7.05;;;;;;;6.31;58.35;99236.41;5055694;28;20111;-78
2021/04/24 06:01:27;;;;;;;11.75;5.45;;;;;;;6.36;57.78;99232.91;5056799;28;20502;-76
2021/04/24 06:03:54;;;;;;;21.58;7.35;;;;;;;6.41;57.18;99235.72;5058594;28;20025;-77
2021/04/24 06:06:20;;;;;;;26.92;10.63;;;;;;;6.48;56.67;99241.03;5057154;28;20385;-78
2021/04/24 06:08:46;;;;;;;26.38;8.77;;;;;;;6.48;56.60;99233.66;5059376;28;20028;-80
2021/04/24 06:11:11;;;;;;;18.55;7.80;;;;;;;6.51;56.89;99237.81;5059768;28;20029;-78
2021/04/24 06:13:37;;;;;;;19.58;7.93;;;;;;;6.55;56.42;99241.66;5056773;28;20403;-78
2021/04/24 06:16:02;;;;;;;24.52;7.75;;;;;;;6.58;56.72;99232.97;5055764;28;20090;-77
2021/04/24 06:18:28;;;;;;;19.42;7.90;;;;;;;6.65;55.97;99235.53;5054400;28;20020;-76
2021/04/24 06:20:53;;;;;;;14.40;6.50;;;;;;;6.66;55.32;99239.91;5054218;28;20025;-76
2021/04/24 06:23:18;;;;;;;14.65;5.88;;;;;;;6.62;53.20;99238.75;5052773;28;20035;-76
2021/04/24 06:25:44;;;;;;;18.02;7.45;;;;;;;6.59;53.45;99231.09;5052965;28;20021;-77
2021/04/24 06:28:10;;;;;;;23.48;8.55;;;;;;;6.60;52.67;99233.56;5052942;28;20477;-78
2021/04/24 06:30:35;;;;;;;28.58;11.52;;;;;;;6.62;53.47;99233.31;5052867;28;20032;-77
2021/04/24 06:33:01;;;;;;;30.95;11.32;;;;;;;6.65;53.10;99222.72;5053966;28;20133;-77
2021/04/24 06:35:27;;;;;;;21.77;8.68;;;;;;;6.66;52.54;99224.38;5053758;28;20031;-79
2021/04/24 06:37:56;;;;;;;19.17;9.25;;;;;;;6.68;52.76;99219.50;5053606;28;20060;-78
2021/04/24 06:40:22;;;;;;;20.73;8.88;;;;;;;6.75;53.06;99222.03;5053875;28;20385;-78
2021/04/24 06:42:47;;;;;;;22.48;8.55;;;;;;;6.85;53.22;99218.63;5052994;28;20021;-78
2021/04/24 06:45:14;;;;;;;17.98;7.20;;;;;;;6.91;53.56;99216.78;5052667;28;20021;-77
2021/04/24 06:47:40;;;;;;;16.70;7.72;;;;;;;6.93;52.98;99211.91;5052968;28;20029;-79
2021/04/24 06:50:07;;;;;;;19.00;7.60;;;;;;;6.96;52.84;99211.41;5053383;28;20021;-78
2021/04/24 06:52:33;;;;;;;23.85;8.95;;;;;;;6.99;53.36;99214.44;5052510;28;20027;-78
2021/04/24 06:54:58;;;;;;;23.38;8.63;;;;;;;7.04;53.52;99210.13;5052753;28;20354;-77
2021/04/24 06:57:24;;;;;;;18.13;8.40;;;;;;;7.09;53.92;99202.84;5053359;28;20492;-77
2021/04/24 06:59:49;;;;;;;17.02;6.97;;;;;;;7.17;53.89;99215.19;5053126;28;20404;-77
2021/04/24 07:02:16;;;;;;;14.77;6.55;;;;;;;7.20;54.14;99203.78;5053609;28;20032;-77
2021/04/24 07:04:42;;;;;;;20.48;9.00;;;;;;;7.28;53.79;99202.50;5052978;28;20043;-76
2021/04/24 07:07:09;;;;;;;20.67;8.68;;;;;;;7.34;54.51;99198.75;5052527;28;20028;-77
2021/04/24 07:09:34;;;;;;;17.70;7.55;;;;;;;7.43;53.36;99196.38;5053171;28;20051;-78
2021/04/24 07:11:59;;;;;;;17.05;6.88;;;;;;;7.43;53.58;99191.75;5053144;28;20532;-78
2021/04/24 07:14:25;;;;;;;20.60;8.20;;;;;;;7.49;53.98;99194.53;5052931;28;20563;-79
2021/04/24 07:16:50;;;;;;;18.15;7.88;;;;;;;7.58;53.81;99195.69;5053147;28;20044;-78
2021/04/24 07:19:17;;;;;;;20.20;8.00;;;;;;;7.59;53.63;99198.19;5053220;28;20453;-78
2021/04/24 07:21:43;;;;;;;22.55;7.88;;;;;;;7.66;53.80;99195.22;5053015;28;20045;-79
2021/04/24 07:24:09;;;;;;;19.60;7.93;;;;;;;7.75;53.56;99190.09;5053304;28;20043;-78
2021/04/24 07:26:35;;;;;;;20.30;8.55;;;;;;;7.81;53.40;99185.53;5053038;28;20025;-77
2021/04/24 07:29:00;;;;;;;17.13;7.20;;;;;;;7.90;53.24;99189.44;5052933;28;20477;-78
2021/04/24 07:31:26;;;;;;;16.02;6.63;;;;;;;8.01;51.97;99201.28;5052809;28;20029;-78
2021/04/24 07:33:52;;;;;;;14.77;5.85;;;;;;;8.10;51.54;99193.41;5052874;28;20025;-78
2021/04/24 07:36:18;;;;;;;20.70;7.43;;;;;;;8.17;52.26;99192.09;5052279;28;20103;-77
2021/04/24 07:38:44;;;;;;;33.60;10.73;;;;;;;8.31;51.46;99195.22;5052594;28;20469;-77
2021/04/24 07:41:09;;;;;;;17.23;6.97;;;;;;;8.45;51.97;99189.25;5052809;28;20021;-77
2021/04/24 07:43:36;;;;;;;11.98;5.75;;;;;;;8.54;51.43;99190.44;5052782;28;20026;-77
2021/04/24 07:46:01;;;;;;;13.43;5.35;;;;;;;8.64;50.59;99189.69;5052539;28;20021;-77
2021/04/24 07:48:27;;;;;;;15.65;5.68;;;;;;;8.72;49.85;99186.44;5052533;28;20028;-77
2021/04/24 07:50:52;;;;;;;26.85;9.32;;;;;;;8.79;48.96;99186.19;5052368;28;20021;-78
2021/04/24 07:53:20;;;;;;;17.08;5.70;;;;;;;8.88;48.76;99189.25;5052488;28;20029;-78
2021/04/24 07:55:45;;;;;;;13.48;6.03;;;;;;;8.99;48.70;99190.91;5052689;28;20025;-79
2021/04/24 07:58:11;;;;;;;12.63;5.00;;;;;;;9.07;47.75;99182.19;5052472;28;20473;-78
2021/04/24 08:00:36;;;;;;;12.30;4.65;;;;;;;9.11;46.92;99182.50;5052616;28;20028;-79
2021/04/24 08:03:03;;;;;;;10.88;4.95;;;;;;;9.16;46.43;99179.78;5052322;28;20040;-78
2021/04/24 08:05:28;;;;;;;11.68;4.50;;;;;;;9.27;46.70;99182.53;5052605;28;20036;-78
2021/04/24 08:07:54;;;;;;;10.32;4.22;;;;;;;9.34;43.65;99183.09;5052562;28;20375;-78
2021/04/24 08:10:19;;;;;;;10.13;4.13;;;;;;;9.30;44.28;99180.09;5052475;28;20107;-78
2021/04/24 08:12:46;;;;;;;14.65;5.32;;;;;;;9.33;43.98;99181.47;5052620;28;20025;-78
2021/04/24 08:15:13;;;;;;;12.45;3.97;;;;;;;9.32;44.41;99179.81;5052187;28;20136;-78
2021/04/24 08:17:39;;;;;;;9.00;3.65;;;;;;;9.38;44.46;99170.53;5052220;28;20040;-78
2021/04/24 08:20:07;;;;;;;13.38;5.18;;;;;;;9.47;44.29;99168.06;5052101;28;20043;-78
2021/04/24 08:22:33;;;;;;;11.52;4.80;;;;;;;9.59;44.89;99168.63;5052473;28;20029;-78
2021/04/24 08:24:58;;;;;;;13.73;4.25;;;;;;;9.67;43.22;99162.63;5052201;28;20385;-78
2021/04/24 08:27:23;;;;;;;10.52;4.57;;;;;;;9.74;43.31;99167.81;5051955;28;20454;-78
2021/04/24 08:29:49;;;;;;;16.27;4.70;;;;;;;9.82;43.11;99174.66;5051996;28;20029;-78
2021/04/24 08:32:14;;;;;;;19.50;8.57;;;;;;;9.90;42.84;99171.38;5052433;28;20025;-78
2021/04/24 08:34:39;;;;;;;10.85;3.90;;;;;;;10.05;42.56;99173.28;5052075;28;20434;-77
2021/04/24 08:37:05;;;;;;;9.05;3.88;;;;;;;10.19;42.55;99172.75;5051545;28;20467;-77
2021/04/24 08:39:30;;;;;;;9.85;4.28;;;;;;;10.23;41.35;99176.56;5052230;28;20111;-79
2021/04/24 08:41:56;;;;;;;9.55;3.80;;;;;;;10.13;41.57;99178.22;5052076;28;20021;-79
2021/04/24 08:44:22;;;;;;;10.43;3.60;;;;;;;10.11;40.92;99190.56;5052417;28;20040;-79
2021/04/24 08:46:52;;;;;;;14.02;5.10;;;;;;;10.18;39.17;99184.81;5052019;28;20032;-79
2021/04/24 08:49:18;;;;;;;11.02;6.88;;;;;;;10.25;40.52;99186.16;5055853;28;20032;-79
2021/04/24 08:51:44;;;;;;;8.98;4.10;;;;;;;10.39;41.37;99175.47;5055648;28;20075;-78
2021/04/24 08:54:10;;;;;;;11.02;4.40;;;;;;;10.56;40.30;99172.44;5055606;28;20099;-79
2021/04/24 08:56:35;;;;;;;10.30;4.93;;;;;;;10.59;40.05;99173.78;5055917;28;20025;-79
2021/04/24 08:59:00;;;;;;;15.70;6.03;;;;;;;10.62;40.59;99177.88;5055782;28;20025;-79
2021/04/24 09:01:26;;;;;;;15.25;6.13;;;;;;;10.63;40.83;99180.38;5055648;28;20032;-79
2021/04/24 09:03:53;;;;;;;10.35;4.22;;;;;;;10.66;40.59;99173.47;5055667;28;20025;-79
2021/04/24 09:06:21;;;;;;;13.60;5.97;;;;;;;10.82;40.93;99168.75;5054525;28;20024;-77
2021/04/24 09:08:54;;;;;;;6.05;3.00;;;;;;;10.95;38.08;99159.94;5055777;28;20048;-78
2021/04/24 09:11:19;;;;;;;6.55;2.50;;;;;;;11.04;37.87;99159.34;5055392;28;20021;-79
2021/04/24 09:13:57;;;;;;;8.18;3.25;;;;;;;11.13;37.58;99150.22;5055380;28;20028;-79
2021/04/24 09:16:23;;;;;;;6.80;3.90;;;;;;;11.20;36.05;99154.59;5055351;28;20041;-78
2021/04/24 09:18:48;;;;;;;12.50;3.50;;;;;;;11.24;36.41;99161.97;5054934;28;20028;-78
2021/04/24 09:21:21;;;;;;;9.32;3.33;;;;;;;11.26;33.59;99165.25;5053738;28;20079;-78
2021/04/24 09:23:46;;;;;;;8.50;3.78;;;;;;;11.28;34.85;99154.00;5054757;28;20053;-78
2021/04/24 09:26:15;;;;;;;8.15;3.30;;;;;;;11.23;33.92;99157.59;5055028;28;20055;-79
2021/04/24 09:28:46;;;;;;;5.73;3.10;;;;;;;11.18;33.87;99160.38;5054382;28;20515;-77
2021/04/24 09:31:22;;;;;;;5.90;3.00;;;;;;;11.19;34.35;99162.03;5054836;28;20152;-78
2021/04/24 09:33:50;;;;;;;10.00;4.15;;;;;;;11.30;33.77;99169.06;5054789;28;20524;-78
2021/04/24 09:36:19;;;;;;;9.18;3.70;;;;;;;11.31;33.74;99151.50;5064718;28;20469;-80
2021/04/24 09:38:48;;;;;;;8.23;4.03;;;;;;;11.38;34.84;99158.59;5050879;28;20040;-78
2021/04/24 09:41:28;;;;;;;11.27;4.43;;;;;;;11.42;34.83;99151.44;5028906;28;20086;-77
2021/04/24 09:44:10;;;;;;;9.57;3.85;;;;;;;11.45;35.41;99161.84;5026551;28;20021;-77
2021/04/24 09:46:45;;;;;;;15.15;5.72;;;;;;;11.35;34.45;99150.94;5046239;28;20031;-77
2021/04/24 09:49:16;;;;;;;15.35;4.90;;;;;;;11.34;35.45;99152.03;5035183;28;20033;-77
2021/04/24 09:51:46;;;;;;;14.35;4.72;;;;;;;11.36;35.80;99144.34;5045672;28;20037;-77
2021/04/24 09:54:12;;;;;;;6.68;3.58;;;;;;;11.41;34.96;99141.56;5034803;28;20022;-78
2021/04/24 09:56:38;;;;;;;8.02;3.67;;;;;;;11.46;34.71;99141.53;5026537;28;20040;-77
2021/04/24 09:59:07;;;;;;;9.27;3.95;;;;;;;11.52;33.47;99140.41;5041949;28;20024;-76
2021/04/24 10:01:34;;;;;;;13.45;4.25;;;;;;;11.52;33.60;99134.91;5018441;28;20037;-77
2021/04/24 10:04:00;;;;;;;14.68;4.80;;;;;;;11.54;32.71;99142.84;5032217;28;20059;-76
2021/04/24 10:06:34;;;;;;;16.13;5.75;;;;;;;11.64;34.16;99142.78;5032986;28;20041;-76
2021/04/24 10:09:20;;;;;;;10.30;4.13;;;;;;;11.82;34.82;99127.50;5039911;28;20486;-76
2021/04/24 10:12:01;;;;;;;9.18;4.38;;;;;;;11.91;33.67;99131.28;5027089;28;20068;-75
2021/04/24 10:14:33;;;;;;;9.70;4.53;;;;;;;11.81;33.90;99123.13;5025225;28;20032;-76
2021/04/24 10:17:00;;;;;;;11.63;4.38;;;;;;;11.82;34.75;99127.50;5045550;28;20481;-76
2021/04/24 10:19:28;;;;;;;16.65;6.60;;;;;;;11.75;34.85;99119.59;5037668;28;20037;-76
2021/04/24 10:21:54;;;;;;;11.50;4.78;;;;;;;11.83;35.58;99112.66;5024270;28;20042;-76
2021/04/24 10:24:23;;;;;;;11.93;4.28;;;;;;;11.93;35.54;99121.94;5016145;28;20367;-77
2021/04/24 10:26:49;;;;;;;9.82;3.78;;;;;;;11.90;33.48;99120.56;5039588;28;20060;-76
2021/04/24 10:29:16;;;;;;;7.88;3.53;;;;;;;11.74;33.70;99112.47;5057350;28;20120;-76
2021/04/24 10:31:41;;;;;;;11.95;5.50;;;;;;;11.74;34.68;99104.22;5059008;28;20021;-77
2021/04/24 10:34:07;;;;;;;8.70;4.47;;;;;;;11.75;34.84;99105.88;5028018;28;20189;-77
2021/04/24 10:36:34;;;;;;;12.32;4.47;;;;;;;11.73;34.27;99099.84;5027589;28;20129;-77
2021/04/24 10:39:01;;;;;;;18.20;8.77;;;;;;;11.69;34.64;99097.94;5024926;28;20469;-76
2021/04/24 10:41:40;;;;;;;11.82;5.13;;;;;;;11.71;34.95;99099.31;5023924;28;20044;-76
2021/04/24 10:44:07;;;;;;;9.02;4.38;;;;;;;11.71;34.40;99090.22;5016604;28;20020;-77
2021/04/24 10:46:36;;;;;;;11.48;4.57;;;;;;;11.70;34.61;99094.91;5017311;28;20022;-76
2021/04/24 10:49:25;;;;;;;13.65;4.60;;;;;;;11.67;34.06;99091.91;5037043;28;20021;-77
2021/04/24 10:51:57;;;;;;;12.02;4.60;;;;;;;11.70;34.78;99091.34;5024885;28;20026;-76
2021/04/24 10:54:28;;;;;;;10.88;4.68;;;;;;;11.91;35.28;99087.31;5025151;28;20052;-76
2021/04/24 10:56:54;;;;;;;14.35;4.25;;;;;;;12.14;35.78;99073.09;5028346;28;20094;-77
2021/04/24 10:59:22;;;;;;;5.97;2.70;;;;;;;12.33;34.54;99082.22;5024949;28;20104;-75
2021/04/24 11:02:02;;;;;;;5.95;3.00;;;;;;;12.39;34.13;99084.91;5026295;28;20037;-76
2021/04/24 11:04:49;;;;;;;8.55;3.90;;;;;;;12.34;32.86;99078.34;5018267;28;20032;-81
2021/04/24 11:07:19;;;;;;;8.95;3.17;;;;;;;12.23;32.96;99070.50;5016378;28;20140;-75
2021/04/24 11:10:05;;;;;;;8.38;4.10;;;;;;;12.09;32.59;99079.44;5024179;28;20032;-75
2021/04/24 11:12:34;;;;;;;7.85;2.92;;;;;;;12.04;33.89;99079.50;5028914;28;20472;-76
2021/04/24 11:15:01;;;;;;;17.02;6.88;;;;;;;12.08;33.87;99088.00;5057348;28;20037;-76
2021/04/24 11:17:31;;;;;;;18.20;7.22;;;;;;;12.15;33.83;99077.47;5026852;28;20030;-76
2021/04/24 11:19:56;;;;;;;28.00;12.55;;;;;;;12.27;34.45;99074.31;5027113;28;20025;-75
2021/04/24 11:22:35;;;;;;;23.30;7.85;;;;;;;12.51;34.12;99074.31;5025227;28;20048;-75
2021/04/24 11:25:16;;;;;;;12.30;4.57;;;;;;;12.63;34.33;99084.91;5019544;28;20049;-75
2021/04/24 11:28:10;;;;;;;10.27;3.90;;;;;;;12.46;32.64;99080.69;5015548;28;20034;-75